DIABLO CANYON, CA - 076

GPS Positions

GPS Time
Latitude
Degrees
Longitude
Degrees
Gap
 
Distance
NM
Speed
Knots
Direction
Degrees
Apr 18, 05:21 35.20395° -120.85952° 30 min 0.01 0.00
Apr 18, 04:51 35.20395° -120.85952° 30 min 0.01 0.00
Apr 18, 04:21 35.20393° -120.85952° 30 min 0.01 0.01
257°
Apr 18, 03:51 35.20394° -120.85946° 30 min 0.01 0.02
293°
Apr 18, 03:21 35.20388° -120.85927° 30 min 0.00 0.01
270°
Apr 18, 02:51 35.20388° -120.85918° 30 min 0.01 0.01
142°
Apr 18, 02:21 35.20395° -120.85925° 30 min 0.01 0.00
219°
Apr 18, 01:51 35.20397° -120.85922° 30 min 0.01 0.03
73°
Apr 18, 01:21 35.20391° -120.85948° 30 min 0.01 0.02
338°
Apr 18, 00:51 35.20377° -120.85941° 30 min 0.01 0.01
261°
Apr 18, 00:21 35.20378° -120.85935° 30 min 0.00 0.02
252°
Apr 17, 23:51 35.20382° -120.85918° 30 min 0.01 0.03
129°
Apr 17, 23:21 35.20399° -120.85944° 30 min 0.01 0.01
239°
Apr 17, 22:51 35.20403° -120.85938° 30 min 0.01 0.00
151°
Apr 17, 22:21 35.20405° -120.85939° 30 min 0.01 0.01
59°
Apr 17, 21:51 35.20401° -120.85946° 30 min 0.01 0.00
59°
Apr 17, 21:21 35.20400° -120.85948° 30 min 0.01 0.00
90°
Apr 17, 20:51 35.20400° -120.85950° 30 min 0.01 0.00
133°
Apr 17, 20:21 35.20401° -120.85952° 30 min 0.02 0.00
180°
Apr 17, 19:51 35.20403° -120.85952° 30 min 0.02 0.00
Apr 17, 19:21 35.20403° -120.85952° 30 min 0.02 0.00
180°
Apr 17, 18:51 35.20404° -120.85952° 30 min 0.02 0.00
Apr 17, 18:21 35.20401° -120.85952° 30 min 0.02 0.00
227°
Apr 17, 17:51 35.20403° -120.85950° 30 min 0.02 0.01
46°
Apr 17, 17:21 35.20399° -120.85954° 30 min 0.02 0.00
180°
Apr 17, 16:51 35.20400° -120.85954° 30 min 0.02 0.00
78°
Apr 17, 16:21 35.20399° -120.85959° 30 min 0.02 0.00
248°
Apr 17, 15:51 35.20400° -120.85957° 30 min 0.02 0.00
Apr 17, 15:21 35.20399° -120.85957° 30 min 0.02 0.00
Apr 17, 14:51 35.20399° -120.85957° 30 min 0.02 0.00
90°
Apr 17, 14:21 35.20399° -120.85959° 30 min 0.02 0.00
248°
Apr 17, 13:51 35.20400° -120.85957° 30 min 0.02 0.00
292°
Apr 17, 13:21 35.20399° -120.85954° 30 min 0.02 0.00
248°
Apr 17, 12:51 35.20400° -120.85952° 30 min 0.02 0.00
270°
Apr 17, 12:21 35.20400° -120.85950° 30 min 0.01 0.00
59°
Apr 17, 11:51 35.20399° -120.85952° 30 min 0.01 0.00
331°
Apr 17, 11:21 35.20397° -120.85950° 30 min 0.01 0.00
287°
Apr 17, 10:51 35.20396° -120.85946° 30 min 0.01 0.00
316°
Apr 17, 10:21 35.20394° -120.85944° 30 min 0.01 0.00
Apr 17, 09:51 35.20393° -120.85944° 30 min 0.01 0.01
23°
Apr 17, 09:21 35.20384° -120.85948° 30 min 0.01 0.02
328°
Apr 17, 08:51 35.20370° -120.85938° 30 min 0.01 0.00
287°
Apr 17, 08:21 35.20369° -120.85933° 30 min 0.01 0.00
Apr 17, 07:51 35.20367° -120.85933° 30 min 0.01 0.01
257°
Apr 17, 07:21 35.20368° -120.85927° 30 min 0.01 0.00
270°
Apr 17, 06:51 35.20368° -120.85922° 30 min 0.01 0.01
230°
Apr 17, 06:21 35.20372° -120.85916° 30 min 0.01 0.00
239°
Apr 17, 05:51 35.20374° -120.85914° 30 min 0.01 0.01
50°
Apr 17, 05:21 35.20369° -120.85920° 30 min 0.01 0.00
270°
Apr 17, 04:51 35.20369° -120.85918° 30 min 0.01 0.00
313°
Apr 17, 04:21 35.20368° -120.85916° 30 min 0.01 0.00
47°
Apr 17, 03:51 35.20367° -120.85918° 30 min 0.01 0.00
180°
Apr 17, 03:21 35.20368° -120.85918° 30 min 0.01 0.00
141°
Apr 17, 02:51 35.20370° -120.85920° 30 min 0.01 0.00
59°
Apr 17, 02:21 35.20369° -120.85922° 30 min 0.01 0.00
Apr 17, 01:51 35.20368° -120.85922° 30 min 0.01 0.00
270°
Apr 17, 01:21 35.20368° -120.85918° 30 min 0.01 0.00
Apr 17, 00:51 35.20368° -120.85918° 30 min 0.01 0.01
197°
Apr 17, 00:21 35.20372° -120.85916° 30 min 0.01 0.00
287°
Apr 16, 23:51 35.20371° -120.85912° 30 min 0.01 0.00
68°
Apr 16, 23:21 35.20370° -120.85914° 30 min 0.01 0.00
90°
Apr 16, 22:51 35.20370° -120.85916° 30 min 0.01 0.00
Apr 16, 22:21 35.20369° -120.85916° 30 min 0.01 0.00
Apr 16, 21:51 35.20368° -120.85916° 30 min 0.01 0.00
180°
Apr 16, 21:21 35.20370° -120.85916° 30 min 0.01 0.00
180°
Apr 16, 20:51 35.20372° -120.85916° 30 min 0.01 0.00
Apr 16, 20:21 35.20370° -120.85916° 30 min 0.01 0.00
180°
Apr 16, 19:51 35.20371° -120.85916° 30 min 0.01 0.00
292°
Apr 16, 19:21 35.20370° -120.85914° 30 min 0.01 0.00
112°
Apr 16, 18:51 35.20371° -120.85916° 30 min 0.01 0.00
33°
Apr 16, 18:21 35.20369° -120.85918° 30 min 0.01 0.00
180°
Apr 16, 17:51 35.20371° -120.85918° 30 min 0.01 0.00
68°
Apr 16, 17:21 35.20370° -120.85920° 30 min 0.01 0.00
301°
Apr 16, 16:51 35.20369° -120.85918° 30 min 0.01 0.00
Apr 16, 16:21 35.20369° -120.85918° 30 min 0.01 0.00
180°
Apr 16, 15:51 35.20370° -120.85918° 30 min 0.01 0.00
90°
Apr 16, 15:21 35.20370° -120.85920° 30 min 0.01 0.00
224°
Apr 16, 14:51 35.20372° -120.85918° 30 min 0.01 0.00
121°
Apr 16, 14:21 35.20374° -120.85920° 30 min 0.01 0.00
Apr 16, 13:51 35.20374° -120.85920° 30 min 0.01 0.00
Apr 16, 13:21 35.20374° -120.85920° 30 min 0.01 0.00
301°
Apr 16, 12:51 35.20372° -120.85918° 30 min 0.01 0.00
180°
Apr 16, 12:21 35.20374° -120.85918° 30 min 0.01 0.00
180°
Apr 16, 11:51 35.20376° -120.85918° 30 min 0.01 0.01
51°
Apr 16, 11:21 35.20371° -120.85925° 30 min 0.01 0.00
253°
Apr 16, 10:51 35.20372° -120.85920° 30 min 0.01 0.00
Apr 16, 10:21 35.20370° -120.85920° 30 min 0.01 0.00
248°
Apr 16, 09:51 35.20371° -120.85918° 30 min 0.01 0.00
180°
Apr 16, 09:21 35.20375° -120.85918° 30 min 0.01 0.00
59°
Apr 16, 08:51 35.20374° -120.85920° 30 min 0.01 0.01
59°
Apr 16, 08:21 35.20371° -120.85925° 30 min 0.01 0.00
90°
Apr 16, 07:51 35.20371° -120.85927° 30 min 0.01 0.00
33°
Apr 16, 07:21 35.20369° -120.85928° 30 min 0.01 0.01
257°
Apr 16, 06:51 35.20370° -120.85922° 30 min 0.01 0.01
243°
Apr 16, 06:21 35.20372° -120.85918° 30 min 0.01 0.00
313°
Apr 16, 05:51 35.20371° -120.85916° 30 min 0.01 0.00
90°
Apr 16, 05:21 35.20371° -120.85918° 30 min 0.01 0.00
227°
Apr 16, 04:51 35.20372° -120.85916° 30 min 0.01 0.01
46°
Apr 16, 04:21 35.20369° -120.85920° 30 min 0.01 0.00
90°
Apr 16, 03:51 35.20369° -120.85922° 30 min 0.01 0.00
270°
Apr 16, 03:21 35.20369° -120.85918° 30 min 0.01 0.00
202°
Apr 16, 02:51 35.20372° -120.85916° 30 min 0.01 0.00
90°
Apr 16, 02:21 35.20372° -120.85918° 30 min 0.01 0.00
Apr 16, 01:51 35.20371° -120.85918° 30 min 0.01 0.00
180°
Apr 16, 01:21 35.20372° -120.85918° 30 min 0.01 0.00
Apr 16, 00:51 35.20371° -120.85918° 30 min 0.01 0.00
180°
Apr 16, 00:21 35.20372° -120.85918° 30 min 0.01 0.00
180°
Apr 15, 23:51 35.20374° -120.85918° 30 min 0.01 0.00
Apr 15, 23:21 35.20372° -120.85918° 30 min 0.01 0.00
Apr 15, 22:51 35.20372° -120.85918° 30 min 0.01 0.00
Apr 15, 22:21 35.20372° -120.85918° 30 min 0.01 0.00
Apr 15, 21:51 35.20371° -120.85918° 30 min 0.01 0.00
Apr 15, 21:21 35.20371° -120.85918° 30 min 0.01 0.00
209°
Apr 15, 20:51 35.20374° -120.85916° 30 min 0.01 0.00
Apr 15, 20:21 35.20372° -120.85916° 30 min 0.01 0.00
47°
Apr 15, 19:51 35.20371° -120.85918° 30 min 0.01 0.00
227°
Apr 15, 19:21 35.20372° -120.85916° 30 min 0.01 0.00
180°
Apr 15, 18:51 35.20374° -120.85916° 30 min 0.01 0.00
Apr 15, 18:21 35.20374° -120.85916° 30 min 0.01 0.00
219°
Apr 15, 17:51 35.20376° -120.85914° 30 min 0.01 0.00
136°
Apr 15, 17:21 35.20378° -120.85916° 30 min 0.01 0.00
Apr 15, 16:51 35.20376° -120.85916° 30 min 0.01 0.01
34°
Apr 15, 16:21 35.20371° -120.85920° 30 min 0.01 0.01
63°
Apr 15, 15:51 35.20369° -120.85925° 30 min 0.01 0.00
90°
Apr 15, 15:21 35.20369° -120.85927° 30 min 0.01 0.00
90°
Apr 15, 14:51 35.20369° -120.85928° 30 min 0.01 0.00
90°
Apr 15, 14:21 35.20369° -120.85933° 30 min 0.01 0.00
73°
Apr 15, 13:51 35.20368° -120.85938° 30 min 0.01 0.00
133°
Apr 15, 13:21 35.20369° -120.85939° 30 min 0.01 0.00
121°
Apr 15, 12:51 35.20370° -120.85941° 30 min 0.01 0.00
180°
Apr 15, 12:21 35.20371° -120.85941° 30 min 0.01 0.00
301°
Apr 15, 11:51 35.20369° -120.85938° 30 min 0.01 0.00
270°
Apr 15, 11:21 35.20369° -120.85935° 30 min 0.01 0.00
301°
Apr 15, 10:51 35.20368° -120.85933° 30 min 0.01 0.00
219°
Apr 15, 10:21 35.20370° -120.85931° 30 min 0.01 0.00
59°
Apr 15, 09:51 35.20369° -120.85933° 30 min 0.01 0.00
121°
Apr 15, 09:21 35.20370° -120.85935° 30 min 0.01 0.00
270°
Apr 15, 08:51 35.20370° -120.85931° 30 min 0.01 0.00
Apr 15, 08:21 35.20369° -120.85931° 30 min 0.01 0.00
180°
Apr 15, 07:51 35.20370° -120.85931° 30 min 0.01 0.00
Apr 15, 07:21 35.20370° -120.85931° 30 min 0.01 0.00
Apr 15, 06:51 35.20369° -120.85931° 30 min 0.01 0.01
90°
Apr 15, 06:21 35.20369° -120.85938° 30 min 0.01 0.00
270°